sensor_id;sensor_type;location;lat;lon;timestamp;P1;durP1;ratioP1;P2;durP2;ratioP2
18286;SDS011;9269;50.838;12.094;2023-11-22T00:00:06;16.27;;;12.13;;
18286;SDS011;9269;50.838;12.094;2023-11-22T00:02:36;14.87;;;11.60;;
18286;SDS011;9269;50.838;12.094;2023-11-22T00:05:06;12.90;;;10.60;;
18286;SDS011;9269;50.838;12.094;2023-11-22T00:07:36;14.00;;;10.50;;
18286;SDS011;9269;50.838;12.094;2023-11-22T00:10:05;13.70;;;10.70;;
18286;SDS011;9269;50.838;12.094;2023-11-22T00:12:36;14.53;;;10.33;;
18286;SDS011;9269;50.838;12.094;2023-11-22T00:15:06;12.97;;;10.03;;
18286;SDS011;9269;50.838;12.094;2023-11-22T00:17:38;12.67;;;9.70;;
18286;SDS011;9269;50.838;12.094;2023-11-22T00:20:07;13.37;;;10.00;;
18286;SDS011;9269;50.838;12.094;2023-11-22T00:22:37;11.70;;;9.27;;
18286;SDS011;9269;50.838;12.094;2023-11-22T00:25:05;12.10;;;9.27;;
18286;SDS011;9269;50.838;12.094;2023-11-22T00:27:37;12.23;;;8.33;;
18286;SDS011;9269;50.838;12.094;2023-11-22T00:30:06;11.10;;;9.70;;
18286;SDS011;9269;50.838;12.094;2023-11-22T00:32:37;11.27;;;8.80;;
18286;SDS011;9269;50.838;12.094;2023-11-22T00:35:09;10.77;;;8.43;;
18286;SDS011;9269;50.838;12.094;2023-11-22T00:37:37;11.50;;;9.03;;
18286;SDS011;9269;50.838;12.094;2023-11-22T00:40:06;13.50;;;9.50;;
18286;SDS011;9269;50.838;12.094;2023-11-22T00:42:40;12.93;;;8.97;;
18286;SDS011;9269;50.838;12.094;2023-11-22T00:45:10;12.57;;;9.43;;
18286;SDS011;9269;50.838;12.094;2023-11-22T00:47:39;13.23;;;9.97;;
18286;SDS011;9269;50.838;12.094;2023-11-22T00:50:08;12.93;;;9.47;;
18286;SDS011;9269;50.838;12.094;2023-11-22T00:52:37;13.57;;;9.93;;
18286;SDS011;9269;50.838;12.094;2023-11-22T00:55:06;13.70;;;11.03;;
18286;SDS011;9269;50.838;12.094;2023-11-22T00:57:35;12.27;;;9.60;;
18286;SDS011;9269;50.838;12.094;2023-11-22T01:00:05;13.43;;;9.33;;
18286;SDS011;9269;50.838;12.094;2023-11-22T01:02:36;15.17;;;11.03;;
18286;SDS011;9269;50.838;12.094;2023-11-22T01:05:06;16.13;;;11.57;;
18286;SDS011;9269;50.838;12.094;2023-11-22T01:07:38;13.37;;;10.20;;
18286;SDS011;9269;50.838;12.094;2023-11-22T01:10:08;13.57;;;10.10;;
18286;SDS011;9269;50.838;12.094;2023-11-22T01:12:38;13.93;;;10.73;;
18286;SDS011;9269;50.838;12.094;2023-11-22T01:15:09;14.23;;;10.33;;
18286;SDS011;9269;50.838;12.094;2023-11-22T01:17:37;13.90;;;10.13;;
18286;SDS011;9269;50.838;12.094;2023-11-22T01:20:06;13.27;;;10.60;;
18286;SDS011;9269;50.838;12.094;2023-11-22T01:22:37;15.23;;;10.80;;
18286;SDS011;9269;50.838;12.094;2023-11-22T01:25:06;16.20;;;11.47;;
18286;SDS011;9269;50.838;12.094;2023-11-22T01:27:38;16.27;;;10.60;;
18286;SDS011;9269;50.838;12.094;2023-11-22T01:30:09;14.30;;;10.27;;
18286;SDS011;9269;50.838;12.094;2023-11-22T01:32:38;13.57;;;9.97;;
18286;SDS011;9269;50.838;12.094;2023-11-22T01:35:07;14.07;;;10.53;;
18286;SDS011;9269;50.838;12.094;2023-11-22T01:37:36;16.73;;;11.17;;
18286;SDS011;9269;50.838;12.094;2023-11-22T01:40:06;12.77;;;9.87;;
18286;SDS011;9269;50.838;12.094;2023-11-22T01:42:36;14.07;;;10.33;;
18286;SDS011;9269;50.838;12.094;2023-11-22T01:45:07;13.67;;;9.80;;
18286;SDS011;9269;50.838;12.094;2023-11-22T01:47:38;15.80;;;10.57;;
18286;SDS011;9269;50.838;12.094;2023-11-22T01:50:07;14.07;;;10.20;;
18286;SDS011;9269;50.838;12.094;2023-11-22T01:52:37;15.27;;;10.03;;
18286;SDS011;9269;50.838;12.094;2023-11-22T01:55:07;13.20;;;9.57;;
18286;SDS011;9269;50.838;12.094;2023-11-22T01:57:37;11.63;;;8.87;;
18286;SDS011;9269;50.838;12.094;2023-11-22T02:00:07;11.63;;;8.87;;
18286;SDS011;9269;50.838;12.094;2023-11-22T02:02:42;12.73;;;9.87;;
18286;SDS011;9269;50.838;12.094;2023-11-22T02:05:11;14.33;;;9.73;;
18286;SDS011;9269;50.838;12.094;2023-11-22T02:07:41;13.80;;;9.83;;
18286;SDS011;9269;50.838;12.094;2023-11-22T02:10:11;11.30;;;8.97;;
18286;SDS011;9269;50.838;12.094;2023-11-22T02:12:40;12.67;;;9.50;;
18286;SDS011;9269;50.838;12.094;2023-11-22T02:15:11;13.93;;;9.07;;
18286;SDS011;9269;50.838;12.094;2023-11-22T02:17:56;11.40;;;8.57;;
18286;SDS011;9269;50.838;12.094;2023-11-22T02:20:38;11.27;;;7.80;;
18286;SDS011;9269;50.838;12.094;2023-11-22T02:23:10;11.07;;;8.13;;
18286;SDS011;9269;50.838;12.094;2023-11-22T02:25:40;10.27;;;8.27;;
18286;SDS011;9269;50.838;12.094;2023-11-22T02:28:13;11.03;;;7.23;;
18286;SDS011;9269;50.838;12.094;2023-11-22T02:30:42;9.53;;;7.13;;
18286;SDS011;9269;50.838;12.094;2023-11-22T02:33:12;9.73;;;7.47;;
18286;SDS011;9269;50.838;12.094;2023-11-22T02:35:42;10.57;;;7.97;;
18286;SDS011;9269;50.838;12.094;2023-11-22T02:38:13;7.97;;;6.70;;
18286;SDS011;9269;50.838;12.094;2023-11-22T02:40:41;8.73;;;6.27;;
18286;SDS011;9269;50.838;12.094;2023-11-22T02:43:10;9.67;;;7.63;;
18286;SDS011;9269;50.838;12.094;2023-11-22T02:45:39;9.10;;;7.40;;
18286;SDS011;9269;50.838;12.094;2023-11-22T02:48:11;8.23;;;6.70;;
18286;SDS011;9269;50.838;12.094;2023-11-22T02:50:45;8.37;;;5.90;;
18286;SDS011;9269;50.838;12.094;2023-11-22T02:53:15;7.87;;;5.63;;
18286;SDS011;9269;50.838;12.094;2023-11-22T02:55:43;8.53;;;6.83;;
18286;SDS011;9269;50.838;12.094;2023-11-22T02:58:12;9.83;;;6.50;;
18286;SDS011;9269;50.838;12.094;2023-11-22T03:00:41;9.13;;;6.60;;
18286;SDS011;9269;50.838;12.094;2023-11-22T03:03:09;8.43;;;6.50;;
18286;SDS011;9269;50.838;12.094;2023-11-22T03:05:39;8.20;;;6.33;;
18286;SDS011;9269;50.838;12.094;2023-11-22T03:08:08;7.33;;;5.50;;
18286;SDS011;9269;50.838;12.094;2023-11-22T03:10:38;9.27;;;6.53;;
18286;SDS011;9269;50.838;12.094;2023-11-22T03:13:07;7.80;;;6.20;;
18286;SDS011;9269;50.838;12.094;2023-11-22T03:15:36;9.27;;;6.57;;
18286;SDS011;9269;50.838;12.094;2023-11-22T03:18:05;8.83;;;6.60;;
18286;SDS011;9269;50.838;12.094;2023-11-22T03:20:33;9.63;;;6.43;;
18286;SDS011;9269;50.838;12.094;2023-11-22T03:23:04;9.47;;;6.60;;
18286;SDS011;9269;50.838;12.094;2023-11-22T03:25:33;8.30;;;6.17;;
18286;SDS011;9269;50.838;12.094;2023-11-22T03:28:04;9.43;;;7.27;;
18286;SDS011;9269;50.838;12.094;2023-11-22T03:30:33;8.10;;;6.90;;
18286;SDS011;9269;50.838;12.094;2023-11-22T03:33:06;7.93;;;6.63;;
18286;SDS011;9269;50.838;12.094;2023-11-22T03:35:35;10.80;;;7.13;;
18286;SDS011;9269;50.838;12.094;2023-11-22T03:38:04;8.63;;;7.37;;
18286;SDS011;9269;50.838;12.094;2023-11-22T03:40:32;9.77;;;7.63;;
18286;SDS011;9269;50.838;12.094;2023-11-22T03:43:01;11.23;;;7.97;;
18286;SDS011;9269;50.838;12.094;2023-11-22T03:45:31;9.47;;;7.40;;
18286;SDS011;9269;50.838;12.094;2023-11-22T03:47:59;10.00;;;7.23;;
18286;SDS011;9269;50.838;12.094;2023-11-22T03:50:28;9.57;;;7.57;;
18286;SDS011;9269;50.838;12.094;2023-11-22T03:52:56;9.40;;;7.03;;
18286;SDS011;9269;50.838;12.094;2023-11-22T03:55:25;10.60;;;8.27;;
18286;SDS011;9269;50.838;12.094;2023-11-22T03:57:53;11.07;;;7.37;;
18286;SDS011;9269;50.838;12.094;2023-11-22T04:00:22;10.63;;;7.77;;
18286;SDS011;9269;50.838;12.094;2023-11-22T04:02:52;9.50;;;7.10;;
18286;SDS011;9269;50.838;12.094;2023-11-22T04:05:23;10.53;;;7.80;;
18286;SDS011;9269;50.838;12.094;2023-11-22T04:07:52;11.23;;;7.37;;
18286;SDS011;9269;50.838;12.094;2023-11-22T04:10:21;10.90;;;7.43;;
18286;SDS011;9269;50.838;12.094;2023-11-22T04:12:50;9.83;;;7.20;;
18286;SDS011;9269;50.838;12.094;2023-11-22T04:15:19;10.73;;;8.20;;
18286;SDS011;9269;50.838;12.094;2023-11-22T04:17:48;9.40;;;7.87;;
18286;SDS011;9269;50.838;12.094;2023-11-22T04:20:18;10.17;;;7.30;;
18286;SDS011;9269;50.838;12.094;2023-11-22T04:22:47;9.57;;;7.70;;
18286;SDS011;9269;50.838;12.094;2023-11-22T04:25:17;10.37;;;7.43;;
18286;SDS011;9269;50.838;12.094;2023-11-22T04:27:46;9.43;;;7.23;;
18286;SDS011;9269;50.838;12.094;2023-11-22T04:30:14;10.07;;;6.97;;
18286;SDS011;9269;50.838;12.094;2023-11-22T04:32:44;9.27;;;7.70;;
18286;SDS011;9269;50.838;12.094;2023-11-22T04:35:13;9.87;;;7.67;;
18286;SDS011;9269;50.838;12.094;2023-11-22T04:37:43;12.03;;;8.00;;
18286;SDS011;9269;50.838;12.094;2023-11-22T04:40:13;9.97;;;7.50;;
18286;SDS011;9269;50.838;12.094;2023-11-22T04:42:42;9.57;;;7.27;;
18286;SDS011;9269;50.838;12.094;2023-11-22T04:45:11;10.33;;;7.90;;
18286;SDS011;9269;50.838;12.094;2023-11-22T04:47:40;11.07;;;7.83;;
18286;SDS011;9269;50.838;12.094;2023-11-22T04:50:10;8.70;;;7.37;;
18286;SDS011;9269;50.838;12.094;2023-11-22T04:52:39;10.17;;;7.30;;
18286;SDS011;9269;50.838;12.094;2023-11-22T04:55:09;11.23;;;8.03;;
18286;SDS011;9269;50.838;12.094;2023-11-22T04:57:41;9.70;;;7.57;;
18286;SDS011;9269;50.838;12.094;2023-11-22T05:00:10;10.93;;;8.23;;
18286;SDS011;9269;50.838;12.094;2023-11-22T05:02:40;9.90;;;7.53;;
18286;SDS011;9269;50.838;12.094;2023-11-22T05:05:09;9.17;;;7.13;;
18286;SDS011;9269;50.838;12.094;2023-11-22T05:07:38;10.10;;;8.00;;
18286;SDS011;9269;50.838;12.094;2023-11-22T05:10:07;9.30;;;7.53;;
18286;SDS011;9269;50.838;12.094;2023-11-22T05:12:38;9.67;;;7.10;;
18286;SDS011;9269;50.838;12.094;2023-11-22T05:15:07;9.13;;;7.37;;
18286;SDS011;9269;50.838;12.094;2023-11-22T05:17:36;10.40;;;7.93;;
18286;SDS011;9269;50.838;12.094;2023-11-22T05:20:05;9.10;;;7.40;;
18286;SDS011;9269;50.838;12.094;2023-11-22T05:22:38;10.03;;;8.60;;
18286;SDS011;9269;50.838;12.094;2023-11-22T05:25:07;10.87;;;7.97;;
18286;SDS011;9269;50.838;12.094;2023-11-22T05:27:37;9.03;;;7.50;;
18286;SDS011;9269;50.838;12.094;2023-11-22T05:30:06;10.43;;;8.00;;
18286;SDS011;9269;50.838;12.094;2023-11-22T05:32:37;11.37;;;8.60;;
18286;SDS011;9269;50.838;12.094;2023-11-22T05:35:06;13.20;;;8.27;;
18286;SDS011;9269;50.838;12.094;2023-11-22T05:37:36;12.70;;;9.03;;
18286;SDS011;9269;50.838;12.094;2023-11-22T05:40:05;10.63;;;7.63;;
18286;SDS011;9269;50.838;12.094;2023-11-22T05:42:38;10.43;;;8.07;;
18286;SDS011;9269;50.838;12.094;2023-11-22T05:45:07;10.50;;;7.47;;
18286;SDS011;9269;50.838;12.094;2023-11-22T05:47:37;9.20;;;7.33;;
18286;SDS011;9269;50.838;12.094;2023-11-22T05:50:07;10.57;;;7.50;;
18286;SDS011;9269;50.838;12.094;2023-11-22T05:52:36;8.70;;;6.57;;
18286;SDS011;9269;50.838;12.094;2023-11-22T05:55:07;8.53;;;7.37;;
18286;SDS011;9269;50.838;12.094;2023-11-22T05:57:57;9.60;;;7.00;;
18286;SDS011;9269;50.838;12.094;2023-11-22T06:00:26;8.77;;;7.17;;
18286;SDS011;9269;50.838;12.094;2023-11-22T06:02:55;9.43;;;8.10;;
18286;SDS011;9269;50.838;12.094;2023-11-22T06:05:24;10.80;;;8.20;;
18286;SDS011;9269;50.838;12.094;2023-11-22T06:07:54;10.60;;;8.10;;
18286;SDS011;9269;50.838;12.094;2023-11-22T06:10:24;8.97;;;7.30;;
18286;SDS011;9269;50.838;12.094;2023-11-22T06:12:54;8.43;;;6.83;;
18286;SDS011;9269;50.838;12.094;2023-11-22T06:15:24;8.73;;;7.33;;
18286;SDS011;9269;50.838;12.094;2023-11-22T06:18:01;10.30;;;7.63;;
18286;SDS011;9269;50.838;12.094;2023-11-22T06:20:29;9.97;;;7.27;;
18286;SDS011;9269;50.838;12.094;2023-11-22T06:22:58;9.03;;;7.47;;
18286;SDS011;9269;50.838;12.094;2023-11-22T06:25:27;10.93;;;7.37;;
18286;SDS011;9269;50.838;12.094;2023-11-22T06:27:56;9.93;;;7.07;;
18286;SDS011;9269;50.838;12.094;2023-11-22T06:30:29;9.13;;;7.43;;
18286;SDS011;9269;50.838;12.094;2023-11-22T06:32:57;9.77;;;6.77;;
18286;SDS011;9269;50.838;12.094;2023-11-22T06:35:26;10.70;;;7.00;;
18286;SDS011;9269;50.838;12.094;2023-11-22T06:37:54;11.03;;;7.13;;
18286;SDS011;9269;50.838;12.094;2023-11-22T06:40:23;11.13;;;7.70;;
18286;SDS011;9269;50.838;12.094;2023-11-22T06:42:51;10.17;;;7.80;;
18286;SDS011;9269;50.838;12.094;2023-11-22T06:45:20;11.93;;;8.63;;
18286;SDS011;9269;50.838;12.094;2023-11-22T06:47:50;8.70;;;7.57;;
18286;SDS011;9269;50.838;12.094;2023-11-22T06:50:20;13.97;;;8.37;;
18286;SDS011;9269;50.838;12.094;2023-11-22T06:52:49;10.13;;;7.67;;
18286;SDS011;9269;50.838;12.094;2023-11-22T06:55:19;9.80;;;7.80;;
18286;SDS011;9269;50.838;12.094;2023-11-22T06:57:48;11.00;;;8.60;;
18286;SDS011;9269;50.838;12.094;2023-11-22T07:00:17;12.80;;;8.33;;
18286;SDS011;9269;50.838;12.094;2023-11-22T07:02:47;11.20;;;7.97;;
18286;SDS011;9269;50.838;12.094;2023-11-22T07:05:17;10.23;;;7.43;;
18286;SDS011;9269;50.838;12.094;2023-11-22T07:07:46;11.33;;;8.07;;
18286;SDS011;9269;50.838;12.094;2023-11-22T07:10:15;9.23;;;8.10;;
18286;SDS011;9269;50.838;12.094;2023-11-22T07:12:51;9.67;;;7.67;;
18286;SDS011;9269;50.838;12.094;2023-11-22T07:15:21;10.77;;;7.90;;
18286;SDS011;9269;50.838;12.094;2023-11-22T07:17:51;9.63;;;7.80;;
18286;SDS011;9269;50.838;12.094;2023-11-22T07:20:21;9.33;;;7.87;;
18286;SDS011;9269;50.838;12.094;2023-11-22T07:22:51;9.63;;;7.37;;
18286;SDS011;9269;50.838;12.094;2023-11-22T07:25:23;9.53;;;7.37;;
18286;SDS011;9269;50.838;12.094;2023-11-22T07:27:54;10.13;;;7.60;;
18286;SDS011;9269;50.838;12.094;2023-11-22T07:30:23;10.70;;;7.97;;
18286;SDS011;9269;50.838;12.094;2023-11-22T07:32:57;8.43;;;7.23;;
18286;SDS011;9269;50.838;12.094;2023-11-22T07:35:34;11.30;;;7.63;;
18286;SDS011;9269;50.838;12.094;2023-11-22T07:38:05;10.53;;;7.53;;
18286;SDS011;9269;50.838;12.094;2023-11-22T07:40:35;9.57;;;7.93;;
18286;SDS011;9269;50.838;12.094;2023-11-22T07:43:04;9.47;;;7.30;;
18286;SDS011;9269;50.838;12.094;2023-11-22T07:45:33;10.07;;;7.80;;
18286;SDS011;9269;50.838;12.094;2023-11-22T07:48:03;10.33;;;7.70;;
18286;SDS011;9269;50.838;12.094;2023-11-22T07:50:33;8.97;;;7.37;;
18286;SDS011;9269;50.838;12.094;2023-11-22T07:53:02;10.60;;;7.60;;
18286;SDS011;9269;50.838;12.094;2023-11-22T07:55:31;10.53;;;7.70;;
18286;SDS011;9269;50.838;12.094;2023-11-22T07:58:02;9.53;;;7.83;;
18286;SDS011;9269;50.838;12.094;2023-11-22T08:00:33;9.63;;;8.00;;
18286;SDS011;9269;50.838;12.094;2023-11-22T08:03:03;10.47;;;8.13;;
18286;SDS011;9269;50.838;12.094;2023-11-22T08:05:35;11.83;;;8.27;;
18286;SDS011;9269;50.838;12.094;2023-11-22T08:08:07;11.47;;;8.23;;
18286;SDS011;9269;50.838;12.094;2023-11-22T08:10:38;12.90;;;8.87;;
18286;SDS011;9269;50.838;12.094;2023-11-22T08:13:26;10.00;;;8.10;;
18286;SDS011;9269;50.838;12.094;2023-11-22T08:15:57;9.73;;;8.03;;
18286;SDS011;9269;50.838;12.094;2023-11-22T08:18:25;11.80;;;8.83;;
18286;SDS011;9269;50.838;12.094;2023-11-22T08:20:56;11.20;;;8.37;;
18286;SDS011;9269;50.838;12.094;2023-11-22T08:23:25;10.07;;;8.23;;
18286;SDS011;9269;50.838;12.094;2023-11-22T08:25:54;10.53;;;8.40;;
18286;SDS011;9269;50.838;12.094;2023-11-22T08:28:23;12.50;;;8.73;;
18286;SDS011;9269;50.838;12.094;2023-11-22T08:30:52;12.53;;;8.97;;
18286;SDS011;9269;50.838;12.094;2023-11-22T08:33:21;12.83;;;9.00;;
18286;SDS011;9269;50.838;12.094;2023-11-22T08:35:50;11.73;;;9.00;;
18286;SDS011;9269;50.838;12.094;2023-11-22T08:38:26;12.50;;;9.03;;
18286;SDS011;9269;50.838;12.094;2023-11-22T08:40:55;12.27;;;8.50;;
18286;SDS011;9269;50.838;12.094;2023-11-22T08:43:23;11.80;;;9.20;;
18286;SDS011;9269;50.838;12.094;2023-11-22T08:45:52;11.93;;;8.90;;
18286;SDS011;9269;50.838;12.094;2023-11-22T08:48:37;11.70;;;9.00;;
18286;SDS011;9269;50.838;12.094;2023-11-22T08:51:07;11.97;;;9.47;;
18286;SDS011;9269;50.838;12.094;2023-11-22T08:53:38;11.73;;;9.00;;
18286;SDS011;9269;50.838;12.094;2023-11-22T08:56:07;14.90;;;10.80;;
18286;SDS011;9269;50.838;12.094;2023-11-22T08:58:37;15.27;;;10.30;;
18286;SDS011;9269;50.838;12.094;2023-11-22T09:01:06;13.43;;;9.07;;
18286;SDS011;9269;50.838;12.094;2023-11-22T09:03:35;14.03;;;9.47;;
18286;SDS011;9269;50.838;12.094;2023-11-22T09:06:05;11.13;;;8.63;;
18286;SDS011;9269;50.838;12.094;2023-11-22T09:08:34;12.00;;;9.10;;
18286;SDS011;9269;50.838;12.094;2023-11-22T09:11:05;10.37;;;9.00;;
18286;SDS011;9269;50.838;12.094;2023-11-22T09:13:34;11.27;;;8.70;;
18286;SDS011;9269;50.838;12.094;2023-11-22T09:16:03;11.10;;;9.37;;
18286;SDS011;9269;50.838;12.094;2023-11-22T09:18:34;13.03;;;9.27;;
18286;SDS011;9269;50.838;12.094;2023-11-22T09:21:03;10.87;;;8.53;;
18286;SDS011;9269;50.838;12.094;2023-11-22T09:23:32;12.10;;;8.77;;
18286;SDS011;9269;50.838;12.094;2023-11-22T09:26:00;11.90;;;8.63;;
18286;SDS011;9269;50.838;12.094;2023-11-22T09:28:30;11.83;;;8.87;;
18286;SDS011;9269;50.838;12.094;2023-11-22T09:30:59;10.57;;;8.50;;
18286;SDS011;9269;50.838;12.094;2023-11-22T09:33:33;10.87;;;8.80;;
18286;SDS011;9269;50.838;12.094;2023-11-22T09:36:02;21.13;;;15.07;;
18286;SDS011;9269;50.838;12.094;2023-11-22T09:38:35;16.60;;;12.43;;
18286;SDS011;9269;50.838;12.094;2023-11-22T09:41:06;13.63;;;10.30;;
18286;SDS011;9269;50.838;12.094;2023-11-22T09:43:37;12.80;;;10.37;;
18286;SDS011;9269;50.838;12.094;2023-11-22T09:46:08;14.33;;;11.47;;
18286;SDS011;9269;50.838;12.094;2023-11-22T09:48:39;15.83;;;12.57;;
18286;SDS011;9269;50.838;12.094;2023-11-22T09:51:08;13.60;;;11.23;;
18286;SDS011;9269;50.838;12.094;2023-11-22T09:53:46;13.07;;;10.73;;
18286;SDS011;9269;50.838;12.094;2023-11-22T09:56:20;15.73;;;11.47;;
18286;SDS011;9269;50.838;12.094;2023-11-22T09:58:51;13.90;;;10.60;;
18286;SDS011;9269;50.838;12.094;2023-11-22T10:01:23;16.07;;;13.77;;
18286;SDS011;9269;50.838;12.094;2023-11-22T10:03:51;13.57;;;10.10;;
18286;SDS011;9269;50.838;12.094;2023-11-22T10:06:21;14.70;;;12.27;;
18286;SDS011;9269;50.838;12.094;2023-11-22T10:08:50;13.47;;;11.20;;
18286;SDS011;9269;50.838;12.094;2023-11-22T10:11:20;12.40;;;10.37;;
18286;SDS011;9269;50.838;12.094;2023-11-22T10:13:50;12.30;;;10.13;;
18286;SDS011;9269;50.838;12.094;2023-11-22T10:16:19;12.80;;;11.33;;
18286;SDS011;9269;50.838;12.094;2023-11-22T10:18:48;13.57;;;11.00;;
18286;SDS011;9269;50.838;12.094;2023-11-22T10:21:21;15.07;;;11.13;;
18286;SDS011;9269;50.838;12.094;2023-11-22T10:23:52;14.47;;;10.57;;
18286;SDS011;9269;50.838;12.094;2023-11-22T10:26:23;14.40;;;10.43;;
18286;SDS011;9269;50.838;12.094;2023-11-22T10:28:53;12.93;;;10.83;;
18286;SDS011;9269;50.838;12.094;2023-11-22T10:31:23;15.23;;;10.90;;
18286;SDS011;9269;50.838;12.094;2023-11-22T10:33:53;12.93;;;10.23;;
18286;SDS011;9269;50.838;12.094;2023-11-22T10:36:24;12.83;;;9.83;;
18286;SDS011;9269;50.838;12.094;2023-11-22T10:38:53;14.27;;;10.87;;
18286;SDS011;9269;50.838;12.094;2023-11-22T10:41:22;12.10;;;10.73;;
18286;SDS011;9269;50.838;12.094;2023-11-22T10:43:51;12.80;;;10.67;;
18286;SDS011;9269;50.838;12.094;2023-11-22T10:46:24;12.27;;;11.00;;
18286;SDS011;9269;50.838;12.094;2023-11-22T10:48:57;14.80;;;12.10;;
18286;SDS011;9269;50.838;12.094;2023-11-22T10:51:26;15.37;;;11.50;;
18286;SDS011;9269;50.838;12.094;2023-11-22T10:53:59;13.07;;;10.47;;
18286;SDS011;9269;50.838;12.094;2023-11-22T10:56:32;13.10;;;10.43;;
18286;SDS011;9269;50.838;12.094;2023-11-22T10:59:09;13.27;;;11.33;;
18286;SDS011;9269;50.838;12.094;2023-11-22T11:01:42;14.93;;;11.17;;
18286;SDS011;9269;50.838;12.094;2023-11-22T11:04:19;12.30;;;10.63;;
18286;SDS011;9269;50.838;12.094;2023-11-22T11:06:53;12.43;;;10.60;;
18286;SDS011;9269;50.838;12.094;2023-11-22T11:09:24;13.23;;;10.40;;
18286;SDS011;9269;50.838;12.094;2023-11-22T11:11:59;12.57;;;9.93;;
18286;SDS011;9269;50.838;12.094;2023-11-22T11:14:36;12.53;;;11.03;;
18286;SDS011;9269;50.838;12.094;2023-11-22T11:17:06;11.10;;;9.50;;
18286;SDS011;9269;50.838;12.094;2023-11-22T11:19:36;12.37;;;10.40;;
18286;SDS011;9269;50.838;12.094;2023-11-22T11:22:07;13.90;;;10.73;;
18286;SDS011;9269;50.838;12.094;2023-11-22T11:24:38;13.43;;;10.63;;
18286;SDS011;9269;50.838;12.094;2023-11-22T11:27:07;13.13;;;10.63;;
18286;SDS011;9269;50.838;12.094;2023-11-22T11:29:39;15.27;;;10.87;;
18286;SDS011;9269;50.838;12.094;2023-11-22T11:32:10;12.13;;;10.10;;
18286;SDS011;9269;50.838;12.094;2023-11-22T11:34:47;13.20;;;11.10;;
18286;SDS011;9269;50.838;12.094;2023-11-22T11:37:18;13.83;;;11.13;;
18286;SDS011;9269;50.838;12.094;2023-11-22T11:39:47;11.93;;;10.23;;
18286;SDS011;9269;50.838;12.094;2023-11-22T11:42:16;13.03;;;10.40;;
18286;SDS011;9269;50.838;12.094;2023-11-22T11:45:02;13.03;;;9.93;;
18286;SDS011;9269;50.838;12.094;2023-11-22T11:47:33;12.90;;;9.93;;
18286;SDS011;9269;50.838;12.094;2023-11-22T11:50:01;14.43;;;11.10;;
18286;SDS011;9269;50.838;12.094;2023-11-22T11:52:51;13.00;;;10.10;;
18286;SDS011;9269;50.838;12.094;2023-11-22T11:55:39;13.90;;;10.43;;
18286;SDS011;9269;50.838;12.094;2023-11-22T11:58:13;13.70;;;10.37;;
18286;SDS011;9269;50.838;12.094;2023-11-22T12:00:45;13.00;;;10.87;;
18286;SDS011;9269;50.838;12.094;2023-11-22T12:03:14;10.80;;;9.70;;
18286;SDS011;9269;50.838;12.094;2023-11-22T12:05:48;12.13;;;10.43;;
18286;SDS011;9269;50.838;12.094;2023-11-22T12:08:20;13.20;;;10.60;;
18286;SDS011;9269;50.838;12.094;2023-11-22T12:10:49;11.37;;;9.57;;
18286;SDS011;9269;50.838;12.094;2023-11-22T12:13:20;12.37;;;10.23;;
18286;SDS011;9269;50.838;12.094;2023-11-22T12:15:50;12.13;;;10.00;;
18286;SDS011;9269;50.838;12.094;2023-11-22T12:18:20;13.37;;;9.80;;
18286;SDS011;9269;50.838;12.094;2023-11-22T12:20:55;11.87;;;9.53;;
18286;SDS011;9269;50.838;12.094;2023-11-22T12:23:25;11.27;;;9.33;;
18286;SDS011;9269;50.838;12.094;2023-11-22T12:25:55;11.07;;;9.27;;
18286;SDS011;9269;50.838;12.094;2023-11-22T12:28:26;13.00;;;9.60;;
18286;SDS011;9269;50.838;12.094;2023-11-22T12:31:05;11.43;;;9.20;;
18286;SDS011;9269;50.838;12.094;2023-11-22T12:33:36;11.67;;;9.37;;
18286;SDS011;9269;50.838;12.094;2023-11-22T12:36:07;12.23;;;9.63;;
18286;SDS011;9269;50.838;12.094;2023-11-22T12:38:36;11.90;;;9.87;;
18286;SDS011;9269;50.838;12.094;2023-11-22T12:41:05;11.93;;;9.10;;
18286;SDS011;9269;50.838;12.094;2023-11-22T12:43:34;13.00;;;9.70;;
18286;SDS011;9269;50.838;12.094;2023-11-22T12:46:17;11.70;;;9.00;;
18286;SDS011;9269;50.838;12.094;2023-11-22T12:48:46;12.87;;;9.40;;
18286;SDS011;9269;50.838;12.094;2023-11-22T12:51:14;11.27;;;9.43;;
18286;SDS011;9269;50.838;12.094;2023-11-22T12:53:45;12.00;;;9.50;;
18286;SDS011;9269;50.838;12.094;2023-11-22T12:56:15;10.50;;;8.80;;
18286;SDS011;9269;50.838;12.094;2023-11-22T12:58:44;10.73;;;9.03;;
18286;SDS011;9269;50.838;12.094;2023-11-22T13:01:13;11.17;;;9.33;;
18286;SDS011;9269;50.838;12.094;2023-11-22T13:03:42;12.27;;;10.00;;
18286;SDS011;9269;50.838;12.094;2023-11-22T13:06:11;12.13;;;10.00;;
18286;SDS011;9269;50.838;12.094;2023-11-22T13:08:40;11.40;;;9.70;;
18286;SDS011;9269;50.838;12.094;2023-11-22T13:11:08;11.37;;;9.60;;
18286;SDS011;9269;50.838;12.094;2023-11-22T13:13:37;12.23;;;9.93;;
18286;SDS011;9269;50.838;12.094;2023-11-22T13:16:05;11.53;;;10.07;;
18286;SDS011;9269;50.838;12.094;2023-11-22T13:18:35;11.40;;;9.57;;
18286;SDS011;9269;50.838;12.094;2023-11-22T13:21:05;11.73;;;9.53;;
18286;SDS011;9269;50.838;12.094;2023-11-22T13:23:35;12.73;;;10.13;;
18286;SDS011;9269;50.838;12.094;2023-11-22T13:26:04;12.07;;;9.50;;
18286;SDS011;9269;50.838;12.094;2023-11-22T13:28:36;14.10;;;10.43;;
18286;SDS011;9269;50.838;12.094;2023-11-22T13:31:05;13.77;;;11.00;;
18286;SDS011;9269;50.838;12.094;2023-11-22T13:33:33;13.07;;;10.73;;
18286;SDS011;9269;50.838;12.094;2023-11-22T13:36:05;13.47;;;10.53;;
18286;SDS011;9269;50.838;12.094;2023-11-22T13:38:34;11.97;;;10.17;;
18286;SDS011;9269;50.838;12.094;2023-11-22T13:41:03;12.10;;;10.80;;
18286;SDS011;9269;50.838;12.094;2023-11-22T13:43:31;13.10;;;10.57;;
18286;SDS011;9269;50.838;12.094;2023-11-22T13:46:01;11.60;;;10.40;;
18286;SDS011;9269;50.838;12.094;2023-11-22T13:48:31;14.33;;;10.80;;
18286;SDS011;9269;50.838;12.094;2023-11-22T13:51:00;13.67;;;12.00;;
18286;SDS011;9269;50.838;12.094;2023-11-22T13:53:35;13.30;;;11.53;;
18286;SDS011;9269;50.838;12.094;2023-11-22T13:56:06;13.00;;;11.60;;
18286;SDS011;9269;50.838;12.094;2023-11-22T13:58:36;12.03;;;10.03;;
18286;SDS011;9269;50.838;12.094;2023-11-22T14:01:05;11.53;;;10.13;;
18286;SDS011;9269;50.838;12.094;2023-11-22T14:03:38;13.20;;;10.43;;
18286;SDS011;9269;50.838;12.094;2023-11-22T14:06:07;12.43;;;9.97;;
18286;SDS011;9269;50.838;12.094;2023-11-22T14:08:37;10.63;;;9.37;;
18286;SDS011;9269;50.838;12.094;2023-11-22T14:11:07;11.57;;;9.77;;
18286;SDS011;9269;50.838;12.094;2023-11-22T14:13:37;10.50;;;9.30;;
18286;SDS011;9269;50.838;12.094;2023-11-22T14:16:07;10.50;;;9.00;;
18286;SDS011;9269;50.838;12.094;2023-11-22T14:18:36;11.90;;;9.37;;
18286;SDS011;9269;50.838;12.094;2023-11-22T14:21:05;11.33;;;9.77;;
18286;SDS011;9269;50.838;12.094;2023-11-22T14:23:34;11.97;;;9.17;;
18286;SDS011;9269;50.838;12.094;2023-11-22T14:26:05;10.50;;;8.87;;
18286;SDS011;9269;50.838;12.094;2023-11-22T14:28:33;11.10;;;8.83;;
18286;SDS011;9269;50.838;12.094;2023-11-22T14:31:02;9.30;;;8.30;;
18286;SDS011;9269;50.838;12.094;2023-11-22T14:33:33;11.07;;;9.37;;
18286;SDS011;9269;50.838;12.094;2023-11-22T14:36:02;9.70;;;8.70;;
18286;SDS011;9269;50.838;12.094;2023-11-22T14:38:31;12.27;;;9.30;;
18286;SDS011;9269;50.838;12.094;2023-11-22T14:40:59;11.87;;;9.70;;
18286;SDS011;9269;50.838;12.094;2023-11-22T14:43:31;14.27;;;10.47;;
18286;SDS011;9269;50.838;12.094;2023-11-22T14:46:01;11.13;;;9.90;;
18286;SDS011;9269;50.838;12.094;2023-11-22T14:48:32;12.60;;;10.10;;
18286;SDS011;9269;50.838;12.094;2023-11-22T14:51:01;14.27;;;11.03;;